createdAt,value
2022-09-20T00:01:22.001Z,16.20
2022-09-20T00:03:51.783Z,16.20
2022-09-20T00:06:23.111Z,16.20
2022-09-20T00:08:51.428Z,16.10
2022-09-20T00:11:21.518Z,16.00
2022-09-20T00:13:51.407Z,16.00
2022-09-20T00:16:23.763Z,16.10
2022-09-20T00:18:52.871Z,16.20
2022-09-20T00:21:23.897Z,16.20
2022-09-20T00:23:53.149Z,16.10
2022-09-20T00:26:21.870Z,16.10
2022-09-20T00:28:50.769Z,16.00
2022-09-20T00:31:19.103Z,16.00
2022-09-20T00:34:01.398Z,16.00
2022-09-20T00:36:31.126Z,16.00
2022-09-20T00:38:59.905Z,16.00
2022-09-20T00:41:28.373Z,16.10
2022-09-20T00:43:57.063Z,16.20
2022-09-20T00:46:29.565Z,16.20
2022-09-20T00:49:02.534Z,16.20
2022-09-20T00:51:35.854Z,16.10
2022-09-20T00:54:06.477Z,16.10
2022-09-20T00:56:38.288Z,16.00
2022-09-20T00:59:12.546Z,16.00
2022-09-20T01:01:40.712Z,16.10
2022-09-20T01:04:09.726Z,16.10
2022-09-20T01:06:39.143Z,16.10
2022-09-20T01:09:07.744Z,16.10
2022-09-20T01:11:36.866Z,16.10
2022-09-20T01:14:05.110Z,16.10
2022-09-20T01:16:34.978Z,16.20
2022-09-20T01:19:09.663Z,16.30
2022-09-20T01:21:39.178Z,16.20
2022-09-20T01:24:15.983Z,16.20
2022-09-20T01:27:08.647Z,16.10
2022-09-20T01:29:48.545Z,16.20
2022-09-20T01:32:21.671Z,16.10
2022-09-20T01:34:54.995Z,16.00
2022-09-20T01:37:27.585Z,15.90
2022-09-20T01:40:03.347Z,16.10
2022-09-20T01:42:34.906Z,16.00
2022-09-20T01:45:10.426Z,15.90
2022-09-20T01:47:45.643Z,15.70
2022-09-20T01:50:24.275Z,15.50
2022-09-20T01:53:27.873Z,15.40
2022-09-20T01:56:27.717Z,15.50
2022-09-20T01:59:34.330Z,15.60
2022-09-20T02:02:31.863Z,15.60
2022-09-20T02:05:14.094Z,15.60
2022-09-20T02:08:01.615Z,15.60
2022-09-20T02:10:58.789Z,15.50
2022-09-20T02:13:32.273Z,15.30
2022-09-20T02:16:31.523Z,15.40
2022-09-20T02:19:22.212Z,15.50
2022-09-20T02:22:00.771Z,15.50
2022-09-20T02:24:34.683Z,15.50
2022-09-20T02:27:14.056Z,15.50
2022-09-20T02:29:49.418Z,15.60
2022-09-20T02:32:30.044Z,15.70
2022-09-20T02:35:22.800Z,15.70
2022-09-20T02:38:01.520Z,15.70
2022-09-20T02:41:07.343Z,15.70
2022-09-20T02:43:41.615Z,15.80
2022-09-20T02:46:14.913Z,15.80
2022-09-20T02:48:48.933Z,15.70
2022-09-20T02:51:24.166Z,15.70
2022-09-20T02:54:02.819Z,15.60
2022-09-20T02:56:37.863Z,15.60
2022-09-20T02:59:12.055Z,15.70
2022-09-20T03:01:48.822Z,15.60
2022-09-20T03:04:27.291Z,15.70
2022-09-20T03:07:04.662Z,15.70
2022-09-20T03:09:38.465Z,15.60
2022-09-20T03:12:18.931Z,15.60
2022-09-20T03:14:56.778Z,15.60
2022-09-20T03:17:32.395Z,15.50
2022-09-20T03:20:18.480Z,15.60
2022-09-20T03:22:58.034Z,15.50
2022-09-20T03:25:49.204Z,15.50
2022-09-20T03:28:38.966Z,15.40
2022-09-20T03:31:16.718Z,15.40
2022-09-20T03:33:55.015Z,15.40
2022-09-20T03:36:36.882Z,15.30
2022-09-20T03:39:23.031Z,15.20
2022-09-20T03:42:15.949Z,15.10
2022-09-20T03:45:21.340Z,15.10
2022-09-20T03:48:06.713Z,15.20
2022-09-20T03:50:55.935Z,15.30
2022-09-20T03:53:50.447Z,15.30
2022-09-20T03:56:43.863Z,15.30
2022-09-20T03:59:26.218Z,15.30
2022-09-20T04:02:21.059Z,15.30
2022-09-20T04:04:54.846Z,15.20
2022-09-20T04:07:27.553Z,15.10
2022-09-20T04:10:13.742Z,15.10
2022-09-20T04:13:00.317Z,15.10
2022-09-20T04:15:36.634Z,15.20
2022-09-20T04:18:13.473Z,15.10
2022-09-20T04:20:46.701Z,15.10
2022-09-20T04:23:31.934Z,15.00
2022-09-20T04:26:02.423Z,15.00
2022-09-20T04:28:37.290Z,15.00
2022-09-20T04:31:20.144Z,15.00
2022-09-20T04:33:52.671Z,14.90
2022-09-20T04:36:36.009Z,15.10
2022-09-20T04:39:20.812Z,15.10
2022-09-20T04:42:42.719Z,15.00
2022-09-20T04:45:44.062Z,14.90
2022-09-20T04:48:47.570Z,15.20
2022-09-20T04:51:49.362Z,15.40
2022-09-20T04:54:54.889Z,15.50
2022-09-20T04:57:45.776Z,15.40
2022-09-20T05:00:17.793Z,15.40
2022-09-20T05:03:11.872Z,15.10
2022-09-20T05:06:05.107Z,14.80
2022-09-20T05:08:58.974Z,14.70
2022-09-20T05:12:09.594Z,14.60
2022-09-20T05:15:08.073Z,14.40
2022-09-20T05:17:45.798Z,14.40
2022-09-20T05:20:46.589Z,14.40
2022-09-20T05:23:43.007Z,14.60
2022-09-20T05:26:14.707Z,14.50
2022-09-20T05:28:57.808Z,14.40
2022-09-20T05:31:38.934Z,14.60
2022-09-20T05:34:15.088Z,14.50
2022-09-20T05:36:54.638Z,14.60
2022-09-20T05:39:35.574Z,14.60
2022-09-20T05:42:15.781Z,14.70
2022-09-20T05:44:57.432Z,14.90
2022-09-20T05:47:35.787Z,15.00
2022-09-20T05:50:17.117Z,15.00
2022-09-20T05:52:52.562Z,14.90
2022-09-20T05:55:47.759Z,14.90
2022-09-20T05:58:33.223Z,15.00
2022-09-20T06:01:09.553Z,15.00
2022-09-20T06:03:42.856Z,15.00
2022-09-20T06:06:15.685Z,15.00
2022-09-20T06:09:13.305Z,15.00
2022-09-20T06:12:02.675Z,15.00
2022-09-20T06:14:43.179Z,15.00
2022-09-20T06:17:24.318Z,15.20
2022-09-20T06:20:01.124Z,15.20
2022-09-20T06:22:32.086Z,15.10
2022-09-20T06:25:04.115Z,15.10
2022-09-20T06:27:37.334Z,15.10
2022-09-20T06:30:08.968Z,15.10
2022-09-20T06:32:54.517Z,15.00
2022-09-20T06:35:25.263Z,14.90
2022-09-20T06:38:17.014Z,14.90
2022-09-20T06:41:05.052Z,14.90
2022-09-20T06:43:32.899Z,14.90
2022-09-20T06:46:01.057Z,15.00
2022-09-20T06:48:31.490Z,15.10
2022-09-20T06:51:01.056Z,15.10
2022-09-20T06:53:33.486Z,15.20
2022-09-20T06:56:02.823Z,15.30
2022-09-20T06:58:31.206Z,15.40
2022-09-20T07:00:59.116Z,15.50
2022-09-20T07:03:27.080Z,15.60
2022-09-20T07:05:57.127Z,15.50
2022-09-20T07:08:25.064Z,15.60
2022-09-20T07:10:52.930Z,15.60
2022-09-20T07:13:21.382Z,15.60
2022-09-20T07:15:49.883Z,15.60
2022-09-20T07:18:18.846Z,15.70
2022-09-20T07:20:47.114Z,15.70
2022-09-20T07:23:16.774Z,15.70
2022-09-20T07:25:44.652Z,15.60
2022-09-20T07:28:12.506Z,15.60
2022-09-20T07:30:40.331Z,15.60
2022-09-20T07:33:11.897Z,15.60
2022-09-20T07:35:39.965Z,15.60
2022-09-20T07:38:08.569Z,15.70
2022-09-20T07:40:37.808Z,15.80
2022-09-20T07:43:05.965Z,15.80
2022-09-20T07:45:35.108Z,15.80
2022-09-20T07:48:05.228Z,15.80
2022-09-20T07:50:33.450Z,15.90
2022-09-20T07:53:01.585Z,15.90
2022-09-20T07:55:29.502Z,15.90
2022-09-20T07:57:58.780Z,15.90
2022-09-20T08:00:26.671Z,15.90
2022-09-20T08:03:01.088Z,15.90
2022-09-20T08:05:29.023Z,15.90
2022-09-20T08:07:56.961Z,15.90
2022-09-20T08:10:25.236Z,15.90
2022-09-20T08:15:42.596Z,15.90
2022-09-20T08:18:11.768Z,15.90
2022-09-20T08:20:39.951Z,15.80
2022-09-20T08:23:23.087Z,15.70
2022-09-20T08:25:51.890Z,15.80
2022-09-20T08:28:19.774Z,15.80
2022-09-20T08:30:49.009Z,15.80
2022-09-20T08:33:16.870Z,15.70
2022-09-20T08:35:44.848Z,15.80
2022-09-20T08:41:04.603Z,15.90
2022-09-20T08:43:39.752Z,15.90
2022-09-20T08:46:14.954Z,15.80
2022-09-20T08:48:43.186Z,15.70
2022-09-20T08:51:22.347Z,15.50
2022-09-20T08:53:53.953Z,15.60
2022-09-20T08:56:22.679Z,15.70
2022-09-20T08:58:50.599Z,15.60
2022-09-20T09:01:23.509Z,15.60
2022-09-20T09:03:52.616Z,15.70
2022-09-20T09:06:24.691Z,15.70
2022-09-20T09:08:53.634Z,15.60
2022-09-20T09:11:23.380Z,15.60
2022-09-20T09:13:54.900Z,15.80
2022-09-20T09:16:34.709Z,15.70
2022-09-20T09:19:33.185Z,15.80
2022-09-20T09:22:03.392Z,15.90
2022-09-20T09:24:32.102Z,15.90
2022-09-20T09:27:15.027Z,15.90
2022-09-20T09:29:51.562Z,15.80
2022-09-20T09:32:28.415Z,15.90
2022-09-20T09:34:57.217Z,15.90
2022-09-20T09:37:30.503Z,15.80
2022-09-20T09:40:10.365Z,15.70
2022-09-20T09:42:38.604Z,15.70
2022-09-20T09:45:13.628Z,15.90
2022-09-20T09:47:42.832Z,16.00
2022-09-20T09:50:24.890Z,16.00
2022-09-20T09:53:00.670Z,15.70
2022-09-20T09:55:40.952Z,15.50
2022-09-20T09:58:22.661Z,15.40
2022-09-20T10:00:52.041Z,15.20
2022-09-20T10:03:36.110Z,15.10
2022-09-20T10:06:19.383Z,15.10
2022-09-20T10:09:00.495Z,15.20
2022-09-20T10:11:38.479Z,15.20
2022-09-20T10:14:21.923Z,15.30
2022-09-20T10:17:06.810Z,15.20
2022-09-20T10:19:49.287Z,15.30
2022-09-20T10:22:24.588Z,15.40
2022-09-20T10:25:02.958Z,15.50
2022-09-20T10:27:48.318Z,15.50
2022-09-20T10:30:19.193Z,15.50
2022-09-20T10:33:04.594Z,15.40
2022-09-20T10:35:52.542Z,15.40
2022-09-20T10:38:28.496Z,15.30
2022-09-20T10:41:29.325Z,15.40
2022-09-20T10:44:08.782Z,15.60
2022-09-20T10:46:49.844Z,15.70
2022-09-20T10:49:28.122Z,15.80
2022-09-20T10:52:21.902Z,15.90
2022-09-20T10:55:15.363Z,16.10
2022-09-20T10:58:04.358Z,16.20
2022-09-20T11:00:40.769Z,16.20
2022-09-20T11:03:20.379Z,16.10
2022-09-20T11:06:02.246Z,16.30
2022-09-20T11:08:35.003Z,16.30
2022-09-20T11:11:10.346Z,16.20
2022-09-20T11:13:44.032Z,16.10
2022-09-20T11:16:17.431Z,15.90
2022-09-20T11:18:51.463Z,15.80
2022-09-20T11:21:23.785Z,15.70
2022-09-20T11:24:00.465Z,15.70
2022-09-20T11:26:35.880Z,15.80
2022-09-20T11:29:14.326Z,15.80
2022-09-20T11:31:44.859Z,15.70
2022-09-20T11:34:21.193Z,15.70
2022-09-20T11:36:54.649Z,15.90
2022-09-20T11:39:31.748Z,16.00
2022-09-20T11:42:01.504Z,16.10
2022-09-20T11:44:29.716Z,16.20
2022-09-20T11:47:03.611Z,16.20
2022-09-20T11:49:40.711Z,16.20
2022-09-20T11:52:32.630Z,16.20
2022-09-20T11:55:18.513Z,16.30
2022-09-20T11:57:46.802Z,16.30
2022-09-20T12:00:17.625Z,16.40
2022-09-20T12:02:49.265Z,16.40
2022-09-20T12:05:33.863Z,16.30
2022-09-20T12:08:04.666Z,16.30
2022-09-20T12:10:37.629Z,16.20
2022-09-20T12:13:08.607Z,16.20
2022-09-20T12:15:39.058Z,16.30
2022-09-20T12:18:28.414Z,16.50
2022-09-20T12:21:07.654Z,16.50
2022-09-20T12:23:46.747Z,16.70
2022-09-20T12:26:37.318Z,16.80
2022-09-20T12:29:52.922Z,16.70
2022-09-20T12:32:57.755Z,16.60
2022-09-20T12:36:16.471Z,16.60
2022-09-20T12:39:00.342Z,16.60
2022-09-20T12:41:29.340Z,16.70
2022-09-20T12:44:03.659Z,16.80
2022-09-20T12:46:41.852Z,16.70
2022-09-20T12:49:57.729Z,16.60
2022-09-20T12:52:49.696Z,16.60
2022-09-20T12:55:39.888Z,16.50
2022-09-20T12:58:21.020Z,16.50
2022-09-20T13:00:51.858Z,16.60
2022-09-20T13:03:31.925Z,16.60
2022-09-20T13:06:25.759Z,16.60
2022-09-20T13:09:05.949Z,16.50
2022-09-20T13:11:40.196Z,16.40
2022-09-20T13:14:13.375Z,16.30
2022-09-20T13:16:50.852Z,16.30
2022-09-20T13:19:22.094Z,16.30
2022-09-20T13:21:57.571Z,16.30
2022-09-20T13:24:27.411Z,16.30
2022-09-20T13:27:01.768Z,16.30
2022-09-20T13:29:35.180Z,16.30
2022-09-20T13:32:17.444Z,16.20
2022-09-20T13:34:46.708Z,16.10
2022-09-20T13:37:23.583Z,16.00
2022-09-20T13:39:55.513Z,16.10
2022-09-20T13:42:23.762Z,16.10
2022-09-20T13:44:51.898Z,16.10
2022-09-20T13:47:24.680Z,16.10
2022-09-20T13:49:53.923Z,16.00
2022-09-20T13:52:25.499Z,16.10
2022-09-20T13:54:55.062Z,16.10
2022-09-20T13:57:25.614Z,16.20
2022-09-20T13:59:54.993Z,16.20
2022-09-20T14:02:27.618Z,16.20
2022-09-20T14:04:59.035Z,16.20
2022-09-20T14:07:29.438Z,16.20
2022-09-20T14:09:58.145Z,16.20
2022-09-20T14:12:27.587Z,16.10
2022-09-20T14:14:55.938Z,16.10
2022-09-20T14:17:25.136Z,16.00
2022-09-20T14:19:54.765Z,16.00
2022-09-20T14:22:27.132Z,16.00
2022-09-20T14:25:00.909Z,16.00
2022-09-20T14:27:31.034Z,16.10
2022-09-20T14:29:59.430Z,16.20
2022-09-20T14:32:38.718Z,16.20
2022-09-20T14:35:13.844Z,16.30
2022-09-20T14:37:46.366Z,16.30
2022-09-20T14:40:26.177Z,16.10
2022-09-20T14:42:57.309Z,16.20
2022-09-20T14:45:29.897Z,16.70
2022-09-20T14:48:06.686Z,16.80
2022-09-20T14:50:40.026Z,16.60
2022-09-20T14:53:26.503Z,16.60
2022-09-20T14:55:59.787Z,16.40
2022-09-20T14:58:28.308Z,16.30
2022-09-20T15:01:01.171Z,16.40
2022-09-20T15:03:32.670Z,16.60
2022-09-20T15:06:00.551Z,17.00
2022-09-20T15:08:29.982Z,17.10
2022-09-20T15:10:59.881Z,17.00
2022-09-20T15:13:27.926Z,17.10
2022-09-20T15:15:56.025Z,17.30
2022-09-20T15:18:26.786Z,17.30
2022-09-20T15:20:55.870Z,17.30
2022-09-20T15:23:23.731Z,17.40
2022-09-20T15:25:54.632Z,17.50
2022-09-20T15:28:23.052Z,17.60
2022-09-20T15:30:52.628Z,17.70
2022-09-20T15:33:22.161Z,17.70
2022-09-20T15:35:50.643Z,17.80
2022-09-20T15:38:19.780Z,17.80
2022-09-20T15:40:49.927Z,17.80
2022-09-20T15:43:21.898Z,17.80
2022-09-20T15:45:52.186Z,17.80
2022-09-20T15:48:22.170Z,18.00
2022-09-20T15:51:02.179Z,18.20
2022-09-20T15:53:33.470Z,18.30
2022-09-20T15:56:02.443Z,18.50
2022-09-20T15:58:36.146Z,18.50
2022-09-20T16:01:06.912Z,18.50
2022-09-20T16:03:35.583Z,18.50
2022-09-20T16:06:05.595Z,18.40
2022-09-20T16:08:34.082Z,18.50
2022-09-20T16:11:02.657Z,18.40
2022-09-20T16:13:32.063Z,18.30
2022-09-20T16:16:01.420Z,18.20
2022-09-20T16:18:47.743Z,18.10
2022-09-20T16:21:17.172Z,17.90
2022-09-20T16:23:49.134Z,17.90
2022-09-20T16:26:17.965Z,17.80
2022-09-20T16:28:48.026Z,17.80
2022-09-20T16:31:34.638Z,17.90
2022-09-20T16:34:03.408Z,17.80
2022-09-20T16:36:31.602Z,17.80
2022-09-20T16:38:59.522Z,17.50
2022-09-20T16:41:30.097Z,17.50
2022-09-20T16:43:59.442Z,17.30
2022-09-20T16:46:28.170Z,17.20
2022-09-20T16:48:56.753Z,17.30
2022-09-20T16:51:26.250Z,17.20
2022-09-20T16:53:55.998Z,17.10
2022-09-20T16:56:26.834Z,17.10
2022-09-20T16:58:55.606Z,17.20
2022-09-20T17:01:25.134Z,17.30
2022-09-20T17:03:53.251Z,17.30
2022-09-20T17:06:21.481Z,17.30
2022-09-20T17:08:56.781Z,17.20
2022-09-20T17:11:28.393Z,17.30
2022-09-20T17:13:57.486Z,17.30
2022-09-20T17:16:29.724Z,17.40
2022-09-20T17:18:59.244Z,17.40
2022-09-20T17:21:28.711Z,17.30
2022-09-20T17:23:58.574Z,17.30
2022-09-20T17:26:28.152Z,17.40
2022-09-20T17:28:58.380Z,17.30
2022-09-20T17:31:34.067Z,17.40
2022-09-20T17:34:03.952Z,17.30
2022-09-20T17:36:34.061Z,17.40
2022-09-20T17:39:04.480Z,17.40
2022-09-20T17:41:33.778Z,17.50
2022-09-20T17:44:07.843Z,17.90
2022-09-20T17:46:38.639Z,18.10
2022-09-20T17:49:08.607Z,18.10
2022-09-20T17:51:38.267Z,17.80
2022-09-20T17:54:07.545Z,17.50
2022-09-20T17:56:36.178Z,17.30
2022-09-20T17:59:05.715Z,17.20
2022-09-20T18:01:35.300Z,17.00
2022-09-20T18:04:06.530Z,16.90
2022-09-20T18:06:36.832Z,16.80
2022-09-20T18:09:07.491Z,16.70
2022-09-20T18:11:37.711Z,16.70
2022-09-20T18:14:07.619Z,16.70
2022-09-20T18:16:37.357Z,16.70
2022-09-20T18:19:08.170Z,16.70
2022-09-20T18:21:37.198Z,16.70
2022-09-20T18:24:07.444Z,16.60
2022-09-20T18:26:36.129Z,16.30
2022-09-20T18:29:06.672Z,16.10
2022-09-20T18:31:36.842Z,15.80
2022-09-20T18:34:07.722Z,15.50
2022-09-20T18:36:38.323Z,15.60
2022-09-20T18:39:06.545Z,15.60
2022-09-20T18:41:36.092Z,15.70
2022-09-20T18:44:07.018Z,15.80
2022-09-20T18:46:37.855Z,15.90
2022-09-20T18:49:09.508Z,16.00
2022-09-20T18:51:40.003Z,16.10
2022-09-20T18:54:10.042Z,16.20
2022-09-20T18:56:39.641Z,16.30
2022-09-20T18:59:09.131Z,16.40
2022-09-20T19:02:02.142Z,16.40
2022-09-20T19:05:08.339Z,16.30
2022-09-20T19:07:50.712Z,16.20
2022-09-20T19:10:26.897Z,16.30
2022-09-20T19:13:03.560Z,16.30
2022-09-20T19:15:43.105Z,16.30
2022-09-20T19:18:25.088Z,16.30
2022-09-20T19:20:58.626Z,16.30
2022-09-20T19:23:45.138Z,16.30
2022-09-20T19:26:21.616Z,16.30
2022-09-20T19:28:50.354Z,16.30
2022-09-20T19:31:23.507Z,16.20
2022-09-20T19:33:54.383Z,16.20
2022-09-20T19:36:22.870Z,16.20
2022-09-20T19:39:05.279Z,16.20
2022-09-20T19:41:47.237Z,16.20
2022-09-20T19:44:28.477Z,16.10
2022-09-20T19:47:10.310Z,16.20
2022-09-20T19:49:49.373Z,16.30
2022-09-20T19:52:19.088Z,16.40
2022-09-20T19:54:49.064Z,16.30
2022-09-20T19:57:21.307Z,16.40
2022-09-20T19:59:50.483Z,16.40
2022-09-20T20:02:18.963Z,16.50
2022-09-20T20:04:47.281Z,16.60
2022-09-20T20:07:27.730Z,16.60
2022-09-20T20:10:04.350Z,16.60
2022-09-20T20:12:35.101Z,16.50
2022-09-20T20:15:13.852Z,16.40
2022-09-20T20:17:49.486Z,16.20
2022-09-20T20:20:26.396Z,16.20
2022-09-20T20:23:36.039Z,16.20
2022-09-20T20:26:08.906Z,16.20
2022-09-20T20:28:38.836Z,15.90
2022-09-20T20:31:09.142Z,15.60
2022-09-20T20:33:37.118Z,15.50
2022-09-20T20:36:08.824Z,15.60
2022-09-20T20:38:37.719Z,15.60
2022-09-20T20:41:08.762Z,15.60
2022-09-20T20:43:38.604Z,15.40
2022-09-20T20:46:09.025Z,15.30
2022-09-20T20:48:37.856Z,15.30
2022-09-20T20:51:07.893Z,15.30
2022-09-20T20:53:37.427Z,15.20
2022-09-20T20:56:08.944Z,15.10
2022-09-20T20:58:40.678Z,15.20
2022-09-20T21:01:10.895Z,15.20
2022-09-20T21:03:38.888Z,15.20
2022-09-20T21:06:07.442Z,15.30
2022-09-20T21:08:36.991Z,15.20
2022-09-20T21:11:08.466Z,15.00
2022-09-20T21:13:36.660Z,14.90
2022-09-20T21:16:10.003Z,14.80
2022-09-20T21:18:38.867Z,14.80
2022-09-20T21:21:15.775Z,14.90
2022-09-20T21:23:45.714Z,15.00
2022-09-20T21:26:15.912Z,15.10
2022-09-20T21:28:46.106Z,15.10
2022-09-20T21:31:14.307Z,15.30
2022-09-20T21:33:43.570Z,15.40
2022-09-20T21:36:13.604Z,15.10
2022-09-20T21:38:42.528Z,15.00
2022-09-20T21:41:12.253Z,15.00
2022-09-20T21:43:42.830Z,15.10
2022-09-20T21:46:12.453Z,15.00
2022-09-20T21:48:40.918Z,14.90
2022-09-20T21:51:10.768Z,14.70
2022-09-20T21:53:39.130Z,14.70
2022-09-20T21:56:08.477Z,14.60
2022-09-20T21:58:38.042Z,14.50
2022-09-20T22:01:11.477Z,14.30
2022-09-20T22:03:40.943Z,14.20
2022-09-20T22:06:10.855Z,14.20
2022-09-20T22:08:39.200Z,14.20
2022-09-20T22:11:10.226Z,14.10
2022-09-20T22:13:42.306Z,14.20
2022-09-20T22:16:13.711Z,14.50
2022-09-20T22:18:43.379Z,14.60
2022-09-20T22:21:13.655Z,14.50
2022-09-20T22:23:42.282Z,14.30
2022-09-20T22:26:12.029Z,14.00
2022-09-20T22:28:40.507Z,13.80
2022-09-20T22:31:11.561Z,13.90
2022-09-20T22:33:42.847Z,14.00
2022-09-20T22:36:12.533Z,13.90
2022-09-20T22:38:40.460Z,13.90
2022-09-20T22:41:08.409Z,13.90
2022-09-20T22:43:37.317Z,14.10
2022-09-20T22:46:06.471Z,14.40
2022-09-20T22:48:36.609Z,14.50
2022-09-20T22:51:06.480Z,14.30
2022-09-20T22:53:35.474Z,14.10
2022-09-20T22:56:05.571Z,14.00
2022-09-20T22:58:35.183Z,13.80
2022-09-20T23:01:07.684Z,13.80
2022-09-20T23:03:37.034Z,13.80
2022-09-20T23:06:05.278Z,13.80
2022-09-20T23:08:34.556Z,13.50
2022-09-20T23:11:06.059Z,13.10
2022-09-20T23:13:34.232Z,12.70
2022-09-20T23:16:10.332Z,12.50
2022-09-20T23:18:39.807Z,12.60
2022-09-20T23:21:07.951Z,12.90
2022-09-20T23:23:36.541Z,13.30
2022-09-20T23:26:07.306Z,13.40
2022-09-20T23:28:35.488Z,13.20
2022-09-20T23:31:04.892Z,12.90
2022-09-20T23:33:32.987Z,12.70
2022-09-20T23:36:03.486Z,12.90
2022-09-20T23:38:31.344Z,13.00
2022-09-20T23:41:03.627Z,12.80
2022-09-20T23:43:31.566Z,12.80
2022-09-20T23:45:59.504Z,12.90
2022-09-20T23:48:27.678Z,12.90
2022-09-20T23:50:56.931Z,13.00
2022-09-20T23:53:26.228Z,13.00
2022-09-20T23:55:54.124Z,13.00
2022-09-20T23:58:22.039Z,12.70
